createdAt,value
2019-04-22T00:03:37.727Z,19.21
2019-04-22T00:09:04.976Z,19.17
2019-04-22T00:14:10.569Z,19.18
2019-04-22T00:19:20.773Z,19.17
2019-04-22T00:24:16.996Z,19.18
2019-04-22T00:29:44.351Z,19.18
2019-04-22T00:34:30.213Z,19.15
2019-04-22T00:50:14.559Z,19.13
2019-04-22T00:54:54.419Z,19.14
2019-04-22T00:59:57.247Z,19.12
2019-04-22T01:05:00.838Z,19.11
2019-04-22T01:10:06.634Z,19.10
2019-04-22T01:15:17.503Z,19.12
2019-04-22T01:20:43.577Z,19.10
2019-04-22T01:25:21.200Z,19.08
2019-04-22T01:30:14.734Z,19.08
2019-04-22T01:35:20.962Z,19.08
2019-04-22T01:40:39.348Z,19.05
2019-04-22T01:45:49.744Z,19.07
2019-04-22T01:50:43.167Z,19.07
2019-04-22T01:55:52.017Z,19.05
2019-04-22T02:01:14.729Z,19.04
2019-04-22T02:06:08.449Z,19.02
2019-04-22T02:11:07.896Z,19.03
2019-04-22T02:16:14.167Z,19.03
2019-04-22T02:21:17.027Z,19.00
2019-04-22T02:26:25.599Z,19.00
2019-04-22T02:36:36.380Z,19.00
2019-04-22T02:41:47.642Z,18.98
2019-04-22T02:52:15.754Z,18.99
2019-04-22T02:56:54.307Z,18.99
2019-04-22T03:02:09.972Z,18.99
2019-04-22T03:07:05.473Z,18.98
2019-04-22T03:17:23.254Z,18.97
2019-04-22T03:22:21.037Z,18.96
2019-04-22T03:27:26.744Z,18.98
2019-04-22T03:37:48.525Z,18.94
2019-04-22T03:42:56.090Z,18.94
2019-04-22T03:47:57.513Z,18.96
2019-04-22T03:53:06.215Z,18.94
2019-04-22T03:57:59.553Z,18.94
2019-04-22T04:03:07.203Z,18.92
2019-04-22T04:08:16.397Z,18.91
2019-04-22T04:13:20.419Z,18.93
2019-04-22T04:18:19.203Z,18.91
2019-04-22T04:33:38.954Z,18.90
2019-04-22T04:38:45.744Z,18.91
2019-04-22T04:43:56.373Z,18.89
2019-04-22T04:49:00.923Z,18.90
2019-04-22T04:54:05.656Z,18.89
2019-04-22T04:59:21.498Z,18.90
2019-04-22T05:14:18.987Z,18.89
2019-04-22T05:19:23.901Z,18.89
2019-04-22T05:30:00.115Z,18.84
2019-04-22T05:34:36.597Z,18.80
2019-04-22T05:39:35.943Z,18.84
2019-04-22T05:44:42.475Z,18.83
2019-04-22T05:49:45.851Z,18.80
2019-04-22T05:54:59.448Z,18.79
2019-04-22T05:59:59.619Z,18.82
2019-04-22T06:05:06.630Z,18.78
2019-04-22T06:10:11.659Z,18.81
2019-04-22T06:15:16.317Z,18.93
2019-04-22T06:20:15.901Z,18.95
2019-04-22T06:25:27.522Z,18.95
2019-04-22T06:30:36.620Z,18.96
2019-04-22T06:35:50.655Z,18.94
2019-04-22T06:45:43.846Z,19.02
2019-04-22T06:51:08.196Z,19.08
2019-04-22T06:56:14.307Z,19.16
2019-04-22T07:01:04.312Z,19.19
2019-04-22T07:06:07.957Z,19.36
2019-04-22T07:11:06.247Z,19.43
2019-04-22T07:16:20.330Z,19.54
2019-04-22T07:21:23.568Z,19.48
2019-04-22T07:26:27.556Z,19.53
2019-04-22T07:31:37.234Z,19.63
2019-04-22T07:41:47.541Z,19.78
2019-04-22T07:46:56.490Z,19.70
2019-04-22T07:51:49.488Z,19.66
2019-04-22T07:57:00.000Z,19.62
2019-04-22T08:02:04.457Z,19.65
2019-04-22T08:07:12.642Z,19.81
2019-04-22T08:12:12.005Z,19.87
2019-04-22T08:17:45.027Z,19.91
2019-04-22T08:22:24.025Z,19.67
2019-04-22T08:27:31.986Z,19.63
2019-04-22T08:32:37.977Z,19.71
2019-04-22T08:43:07.220Z,19.65
2019-04-22T08:47:47.916Z,19.63
2019-04-22T08:52:57.600Z,19.62
2019-04-22T08:58:16.544Z,19.62
2019-04-22T09:03:04.386Z,19.60
2019-04-22T09:08:14.228Z,19.62
2019-04-22T09:13:14.516Z,19.62
2019-04-22T09:18:23.194Z,19.61
2019-04-22T09:23:33.917Z,19.62
2019-04-22T09:28:35.743Z,19.64
2019-04-22T09:54:02.498Z,19.65
2019-04-22T10:04:21.856Z,19.62
2019-04-22T10:09:34.741Z,19.65
2019-04-22T10:14:18.942Z,19.59
2019-04-22T10:19:23.676Z,19.47
2019-04-22T10:24:30.012Z,19.83
2019-04-22T10:29:35.351Z,19.93
2019-04-22T10:34:26.269Z,19.96
2019-04-22T10:39:18.296Z,19.88
2019-04-22T10:44:23.536Z,19.72
2019-04-22T10:49:28.600Z,19.93
2019-04-22T10:54:33.550Z,20.03
2019-04-22T10:59:38.224Z,20.03
2019-04-22T11:04:41.931Z,20.08
2019-04-22T11:09:53.089Z,19.93
2019-04-22T11:14:51.644Z,19.87
2019-04-22T11:19:55.399Z,19.84
2019-04-22T11:25:01.299Z,19.92
2019-04-22T11:30:07.978Z,19.89
2019-04-22T11:35:11.915Z,19.88
2019-04-22T11:40:25.412Z,19.85
2019-04-22T11:45:21.825Z,19.79
2019-04-22T11:50:26.107Z,19.80
2019-04-22T11:55:30.892Z,19.80
2019-04-22T12:00:36.823Z,19.83
2019-04-22T12:05:41.624Z,19.84
2019-04-22T12:10:51.578Z,19.82
2019-04-22T12:15:51.160Z,19.82
2019-04-22T12:20:55.245Z,19.79
2019-04-22T12:26:04.266Z,19.77
2019-04-22T12:31:03.998Z,19.70
2019-04-22T12:36:08.666Z,19.71
2019-04-22T12:41:13.888Z,19.71
2019-04-22T12:46:18.523Z,19.73
2019-04-22T12:51:23.079Z,19.70
2019-04-22T12:56:27.859Z,19.82
2019-04-22T13:01:31.295Z,19.89
2019-04-22T13:06:35.584Z,19.99
2019-04-22T13:11:40.748Z,20.02
2019-04-22T13:16:44.903Z,20.04
2019-04-22T13:21:48.919Z,20.02
2019-04-22T13:26:53.016Z,20.07
2019-04-22T13:31:56.503Z,20.05
2019-04-22T13:37:01.142Z,19.82
2019-04-22T13:42:09.902Z,19.80
2019-04-22T13:47:22.239Z,19.95
2019-04-22T13:52:49.058Z,19.98
2019-04-22T13:57:37.838Z,19.97
2019-04-22T14:02:26.760Z,19.83
2019-04-22T14:07:30.747Z,19.81
2019-04-22T14:12:34.927Z,19.61
2019-04-22T14:17:38.955Z,19.63
2019-04-22T14:22:42.492Z,19.75
2019-04-22T14:27:54.827Z,19.78
2019-04-22T14:32:51.265Z,19.78
2019-04-22T14:37:56.336Z,19.78
2019-04-22T14:43:23.203Z,19.77
2019-04-22T14:48:31.620Z,19.61
2019-04-22T14:53:31.013Z,19.75
2019-04-22T14:58:15.293Z,19.99
2019-04-22T15:03:19.686Z,19.99
2019-04-22T15:08:24.671Z,20.00
2019-04-22T15:13:29.434Z,19.93
2019-04-22T15:18:35.764Z,19.94
2019-04-22T15:23:40.462Z,19.92
2019-04-22T15:28:45.164Z,19.88
2019-04-22T15:33:50.268Z,19.87
2019-04-22T15:38:55.102Z,19.89
2019-04-22T15:43:59.688Z,19.87
2019-04-22T15:49:04.257Z,19.82
2019-04-22T15:54:07.811Z,19.75
2019-04-22T15:59:31.243Z,19.81
2019-04-22T16:04:16.969Z,19.78
2019-04-22T16:09:20.693Z,19.77
2019-04-22T16:14:32.853Z,19.77
2019-04-22T16:19:30.793Z,19.76
2019-04-22T16:24:36.286Z,19.76
2019-04-22T16:29:41.108Z,19.67
2019-04-22T16:34:45.773Z,19.69
2019-04-22T16:39:51.898Z,19.56
2019-04-22T16:44:55.470Z,19.53
2019-04-22T16:49:59.660Z,19.50
2019-04-22T16:55:03.615Z,19.37
2019-04-22T17:00:11.203Z,19.42
2019-04-22T17:05:25.494Z,19.41
2019-04-22T17:10:29.470Z,19.38
2019-04-22T17:15:33.410Z,19.33
2019-04-22T17:20:37.112Z,19.40
2019-04-22T17:25:40.599Z,19.41
2019-04-22T17:30:45.598Z,19.39
2019-04-22T17:35:50.310Z,19.34
2019-04-22T17:41:08.253Z,19.28
2019-04-22T17:46:19.588Z,19.24
2019-04-22T17:56:33.728Z,19.40
2019-04-22T18:01:41.709Z,19.30
2019-04-22T18:06:52.785Z,19.27
2019-04-22T18:11:51.262Z,19.28
2019-04-22T18:16:51.940Z,19.13
2019-04-22T18:21:54.537Z,19.19
2019-04-22T18:27:15.877Z,19.27
2019-04-22T18:31:58.106Z,19.27
2019-04-22T18:37:09.332Z,19.24
2019-04-22T18:42:09.476Z,19.25
2019-04-22T18:47:18.660Z,19.23
2019-04-22T18:52:48.027Z,19.21
2019-04-22T18:57:59.876Z,19.19
2019-04-22T19:02:56.953Z,19.29
2019-04-22T19:08:18.319Z,19.32
2019-04-22T19:18:29.730Z,19.35
2019-04-22T19:23:44.990Z,19.34
2019-04-22T19:28:49.396Z,19.35
2019-04-22T19:33:42.668Z,19.25
2019-04-22T19:38:34.085Z,19.28
2019-04-22T19:43:53.246Z,19.32
2019-04-22T19:48:56.502Z,19.33
2019-04-22T19:54:01.372Z,19.33
2019-04-22T19:58:58.586Z,19.33
2019-04-22T20:04:16.230Z,19.31
2019-04-22T20:09:26.964Z,19.24
2019-04-22T20:14:21.902Z,19.19
2019-04-22T20:19:33.789Z,19.17
2019-04-22T20:24:20.689Z,19.13
2019-04-22T20:29:41.836Z,19.20
2019-04-22T20:34:47.494Z,19.22
2019-04-22T20:39:46.799Z,19.20
2019-04-22T20:44:56.738Z,19.24
2019-04-22T20:50:02.250Z,19.43
2019-04-22T20:55:03.400Z,19.58
2019-04-22T21:00:06.437Z,19.65
2019-04-22T21:05:01.899Z,19.45
2019-04-22T21:10:15.907Z,19.39
2019-04-22T21:15:32.559Z,19.34
2019-04-22T21:20:41.435Z,19.32
2019-04-22T21:25:29.209Z,19.30
2019-04-22T21:30:45.260Z,19.29
2019-04-22T21:35:59.621Z,19.28
2019-04-22T21:40:56.686Z,19.26
2019-04-22T21:46:04.537Z,19.24
2019-04-22T21:51:08.692Z,19.22
2019-04-22T21:56:31.771Z,19.21
2019-04-22T22:06:28.371Z,19.20
2019-04-22T22:11:41.764Z,19.18
2019-04-22T22:16:38.669Z,19.16
2019-04-22T22:21:58.660Z,19.15
2019-04-22T22:26:57.117Z,19.15
2019-04-22T22:32:04.833Z,19.14
2019-04-22T22:37:02.026Z,19.13
2019-04-22T22:41:52.015Z,19.12
2019-04-22T22:47:16.289Z,19.12
2019-04-22T22:52:48.790Z,19.07
2019-04-22T23:02:30.249Z,19.06
2019-04-22T23:07:42.797Z,19.05
2019-04-22T23:13:00.386Z,19.04
2019-04-22T23:17:29.899Z,19.06
2019-04-22T23:22:51.098Z,19.06
2019-04-22T23:28:00.308Z,19.06
2019-04-22T23:33:05.801Z,19.04
2019-04-22T23:38:07.834Z,19.05
2019-04-22T23:43:21.922Z,19.04
2019-04-22T23:48:14.119Z,19.02
2019-04-22T23:53:42.585Z,19.01
2019-04-22T23:58:48.131Z,19.00
